Terminal Aerodrome Forecast
Issued by NWS

Home | Current Version | Previous Version | Text Only | Print | Product List | Glossary On
Versions: 1 2 3 4 5 6 7 8 9 10 11 12 13
000
FTUS44 KOUN 240525
TAFWWR
TAF
KWWR 240525Z 2406/2506 17030G41KT P6SM SCT150 BKN200
      TEMPO 2406/2407 VRB40KT 5SM -TSRA BKN050CB
     FM240900 20023G33KT P6SM SCT250
     FM241800 23022G29KT P6SM OVC025
     FM242100 30024KT P6SM OVC050
     FM250000 34017G26KT P6SM OVC100
     FM250300 34021G28KT P6SM OVC015=

USA.gov is the U.S. government's official web portal to all federal, state and local government web resources and services.